Time;durP1;ratioP1;P1;durP2;ratioP2;P2;SDS_P1;SDS_P2;PMS_P1;PMS_P2;Temp;Humidity;BMP_temperature;BMP_pressure;BME280_temperature;BME280_humidity;BME280_pressure;Samples;Min_cycle;Max_cycle;Signal;HPM_P1;HPM_P2
2021/08/04 00:00:34;;;;;;;;;;;;;;;;;;2092443;28;2040;-89
2021/08/04 00:01:35;;;;;;;;;;;;;;;;;;2091955;28;1390;-89
2021/08/04 00:02:38;;;;;;;;;;;;;;;;;;2095004;28;1908;-89
2021/08/04 00:03:39;;;;;;;;;;;;;;;;;;2108732;28;1218;-89
2021/08/04 00:04:41;;;;;;;;;;;;;;;;;;2108165;28;1339;-89
2021/08/04 00:05:42;;;;;;;;;;;;;;;;;;2106648;28;2047;-89
2021/08/04 00:06:44;;;;;;;;;;;;;;;;;;2099655;28;1197;-89
2021/08/04 00:07:44;;;;;;;;;;;;;;;;;;2099993;28;1411;-89
2021/08/04 00:08:46;;;;;;;;;;;;;;;;;;2100432;28;1450;-89
2021/08/04 00:09:47;;;;;;;;;;;;;;;;;;2100349;28;1512;-89
2021/08/04 00:10:49;;;;;;;;;;;;;;;;;;2105610;28;2007;-89
2021/08/04 00:11:50;;;;;;;;;;;;;;;;;;2108434;28;1204;-89
2021/08/04 00:12:52;;;;;;;;;;;;;;;;;;2099714;28;1194;-89
2021/08/04 00:13:53;;;;;;;;;;;;;;;;;;2099545;28;1357;-89
2021/08/04 00:14:54;;;;;;;;;;;;;;;;;;2100170;28;1198;-89
2021/08/04 00:15:55;;;;;;;;;;;;;;;;;;2099847;28;1917;-89
2021/08/04 00:16:57;;;;;;;;;;;;;;;;;;2100180;28;1195;-89
2021/08/04 00:17:59;;;;;;;;;;;;;;;;;;2099855;28;2037;-89
2021/08/04 00:19:01;;;;;;;;;;;;;;;;;;2091693;28;1340;-89
2021/08/04 00:20:03;;;;;;;;;;;;;;;;;;2091786;28;1206;-89
2021/08/04 00:21:04;;;;;;;;;;;;;;;;;;2091978;28;2012;-89
2021/08/04 00:22:05;;;;;;;;;;;;;;;;;;2099881;28;1246;-89
2021/08/04 00:23:07;;;;;;;;;;;;;;;;;;2099971;28;1495;-89
2021/08/04 00:24:08;;;;;;;;;;;;;;;;;;2091242;28;1478;-89
2021/08/04 00:25:11;;;;;;;;;;;;;;;;;;2099846;28;1259;-89
2021/08/04 00:26:12;;;;;;;;;;;;;;;;;;2100181;28;2051;-89
2021/08/04 00:27:14;;;;;;;;;;;;;;;;;;2100160;28;1308;-88
2021/08/04 00:28:14;;;;;;;;;;;;;;;;;;2107499;28;1362;-89
2021/08/04 00:29:16;;;;;;;;;;;;;;;;;;2099981;28;1345;-89
2021/08/04 00:30:18;;;;;;;;;;;;;;;;;;2091736;28;1144;-89
2021/08/04 00:31:20;;;;;;;;;;;;;;;;;;2091943;28;2061;-89
2021/08/04 00:32:24;;;;;;;;;;;;;;;;;;2099909;28;1203;-91
2021/08/04 00:33:27;;;;;;;;;;;;;;;;;;2092074;28;1330;-91
2021/08/04 00:34:28;;;;;;;;;;;;;;;;;;2091840;28;1288;-90
2021/08/04 00:35:30;;;;;;;;;;;;;;;;;;2099725;28;1253;-89
2021/08/04 00:36:31;;;;;;;;;;;;;;;;;;2091745;28;1728;-89
2021/08/04 00:37:33;;;;;;;;;;;;;;;;;;2099587;28;1917;-90
2021/08/04 00:38:34;;;;;;;;;;;;;;;;;;2099772;28;1239;-90
2021/08/04 00:39:36;;;;;;;;;;;;;;;;;;2099665;28;1306;-89
2021/08/04 00:40:37;;;;;;;;;;;;;;;;;;2092215;28;2064;-89
2021/08/04 00:41:40;;;;;;;;;;;;;;;;;;2099842;28;1360;-90
2021/08/04 00:42:40;;;;;;;;;;;;;;;;;;2107654;28;1155;-89
2021/08/04 00:43:43;;;;;;;;;;;;;;;;;;2100140;28;884;-90
2021/08/04 00:44:44;;;;;;;;;;;;;;;;;;2108132;28;1263;-90
2021/08/04 00:45:46;;;;;;;;;;;;;;;;;;2107491;28;1857;-89
2021/08/04 00:46:47;;;;;;;;;;;;;;;;;;2099308;28;1293;-88
2021/08/04 00:47:49;;;;;;;;;;;;;;;;;;2091701;28;1426;-90
2021/08/04 00:48:51;;;;;;;;;;;;;;;;;;2091288;28;1192;-90
2021/08/04 00:49:53;;;;;;;;;;;;;;;;;;2091773;28;1419;-90
2021/08/04 00:50:54;;;;;;;;;;;;;;;;;;2091316;28;1272;-90
2021/08/04 00:51:56;;;;;;;;;;;;;;;;;;2091714;28;1326;-90
2021/08/04 00:52:57;;;;;;;;;;;;;;;;;;2091074;28;1378;-91
2021/08/04 00:53:59;;;;;;;;;;;;;;;;;;2099896;28;1199;-90
2021/08/04 00:54:59;;;;;;;;;;;;;;;;;;2091467;28;1272;-90
2021/08/04 00:56:01;;;;;;;;;;;;;;;;;;2107908;28;1171;-90
2021/08/04 00:57:02;;;;;;;;;;;;;;;;;;2099837;28;1577;-90
2021/08/04 00:58:04;;;;;;;;;;;;;;;;;;2100003;28;1914;-90
2021/08/04 00:59:06;;;;;;;;;;;;;;;;;;2099641;28;1249;-90
2021/08/04 01:00:09;;;;;;;;;;;;;;;;;;2091300;28;1273;-90
2021/08/04 01:01:12;;;;;;;;;;;;;;;;;;2099870;28;1213;-90
2021/08/04 01:02:18;;;;;;;;;;;;;;;;;;2099971;28;1133;-89
2021/08/04 01:03:20;;;;;;;;;;;;;;;;;;2099693;28;1317;-90
2021/08/04 01:04:25;;;;;;;;;;;;;;;;;;2099937;28;1338;-89
2021/08/04 01:05:31;;;;;;;;;;;;;;;;;;2099808;28;2007;-89
2021/08/04 01:06:35;;;;;;;;;;;;;;;;;;2099728;28;1347;-89
2021/08/04 01:07:39;;;;;;;;;;;;;;;;;;2099235;28;1522;-89
2021/08/04 01:08:43;;;;;;;;;;;;;;;;;;2091645;28;1302;-89
2021/08/04 01:09:45;;;;;;;;;;;;;;;;;;2091705;28;1215;-90
2021/08/04 01:10:49;;;;;;;;;;;;;;;;;;2091125;28;1235;-88
2021/08/04 01:11:54;;;;;;;;;;;;;;;;;;2099743;28;1364;-88
2021/08/04 01:12:59;;;;;;;;;;;;;;;;;;2105910;28;2141;-89
2021/08/04 01:14:02;;;;;;;;;;;;;;;;;;2100115;28;1344;-89
2021/08/04 01:15:06;;;;;;;;;;;;;;;;;;2099852;28;1270;-89
2021/08/04 01:16:09;;;;;;;;;;;;;;;;;;2093898;28;2044;-90
2021/08/04 01:17:12;;;;;;;;;;;;;;;;;;2091131;28;2187;-89
2021/08/04 01:18:16;;;;;;;;;;;;;;;;;;2098759;28;1977;-90
2021/08/04 01:19:27;;;;;;;;;;;;;;;;;;2092341;28;1343;-90
2021/08/04 01:20:29;;;;;;;;;;;;;;;;;;2092578;28;1244;-90
2021/08/04 01:21:35;;;;;;;;;;;;;;;;;;2091278;28;1346;-90
2021/08/04 01:22:41;;;;;;;;;;;;;;;;;;2094393;28;2086;-90
2021/08/04 01:23:45;;;;;;;;;;;;;;;;;;2092184;28;1298;-90
2021/08/04 01:24:50;;;;;;;;;;;;;;;;;;2090790;28;1398;-90
2021/08/04 01:25:54;;;;;;;;;;;;;;;;;;2092260;28;1799;-90
2021/08/04 01:26:58;;;;;;;;;;;;;;;;;;2099675;28;1738;-90
2021/08/04 01:28:20;;;;;;;;;;;;;;;;;;2091684;28;1282;-90
2021/08/04 01:29:24;;;;;;;;;;;;;;;;;;2094384;28;1469;-89
2021/08/04 01:30:25;;;;;;;;;;;;;;;;;;2099396;28;2020;-90
2021/08/04 01:31:28;;;;;;;;;;;;;;;;;;2091237;28;1343;-88
2021/08/04 01:32:29;;;;;;;;;;;;;;;;;;2099150;28;2078;-89
2021/08/04 01:33:31;;;;;;;;;;;;;;;;;;2099614;28;1206;-88
2021/08/04 01:34:35;;;;;;;;;;;;;;;;;;2099817;28;887;-89
2021/08/04 01:35:43;;;;;;;;;;;;;;;;;;2100972;28;1458;-91
2021/08/04 01:36:48;;;;;;;;;;;;;;;;;;2099577;28;1242;-91
2021/08/04 01:37:54;;;;;;;;;;;;;;;;;;2091866;28;1918;-92
2021/08/04 01:39:00;;;;;;;;;;;;;;;;;;2091573;28;1211;-92
2021/08/04 01:40:11;;;;;;;;;;;;;;;;;;2092871;28;1304;-91
2021/08/04 01:41:25;;;;;;;;;;;;;;;;;;2099368;28;2051;-91
2021/08/04 01:42:43;;;;;;;;;;;;;;;;;;2093893;28;1987;-91
2021/08/04 01:43:54;;;;;;;;;;;;;;;;;;2092499;28;1228;-91
2021/08/04 01:45:09;;;;;;;;;;;;;;;;;;2091939;28;1325;-91
2021/08/04 01:46:35;;;;;;;;;;;;;;;;;;2099549;28;2076;-91
2021/08/04 01:47:42;;;;;;;;;;;;;;;;;;2107796;28;1313;-92
2021/08/04 01:49:06;;;;;;;;;;;;;;;;;;2106493;28;1504;-91
2021/08/04 01:50:24;;;;;;;;;;;;;;;;;;2094492;28;1333;-92
2021/08/04 01:51:38;;;;;;;;;;;;;;;;;;2092679;28;2034;-92
2021/08/04 01:53:16;;;;;;;;;;;;;;;;;;2106638;28;2160;-91
2021/08/04 01:54:32;;;;;;;;;;;;;;;;;;2107765;28;1260;-91
2021/08/04 01:55:43;;;;;;;;;;;;;;;;;;2100467;28;1996;-92
2021/08/04 01:56:59;;;;;;;;;;;;;;;;;;2099324;28;1174;-90
2021/08/04 01:58:02;;;;;;;;;;;;;;;;;;2100007;28;1910;-90
2021/08/04 01:59:04;;;;;;;;;;;;;;;;;;2107774;28;1290;-91
2021/08/04 02:00:05;;;;;;;;;;;;;;;;;;2098981;28;1411;-90
2021/08/04 02:01:15;;;;;;;;;;;;;;;;;;2101531;28;2074;-90
2021/08/04 02:02:17;;;;;;;;;;;;;;;;;;2099409;28;1401;-89
2021/08/04 02:03:19;;;;;;;;;;;;;;;;;;2091472;28;1415;-89
2021/08/04 02:04:20;;;;;;;;;;;;;;;;;;2099365;28;1310;-89
2021/08/04 02:05:22;;;;;;;;;;;;;;;;;;2091359;28;1384;-89
2021/08/04 02:06:28;;;;;;;;;;;;;;;;;;2091059;28;1878;-89
2021/08/04 02:07:38;;;;;;;;;;;;;;;;;;2101941;28;2054;-90
2021/08/04 02:08:42;;;;;;;;;;;;;;;;;;2107959;28;1190;-89
2021/08/04 02:09:48;;;;;;;;;;;;;;;;;;2107568;28;1381;-89
2021/08/04 02:10:52;;;;;;;;;;;;;;;;;;2106389;28;1317;-88
2021/08/04 02:11:59;;;;;;;;;;;;;;;;;;2091699;28;1321;-89
2021/08/04 02:13:06;;;;;;;;;;;;;;;;;;2092094;28;2078;-89
2021/08/04 02:14:13;;;;;;;;;;;;;;;;;;2091669;28;1473;-89
2021/08/04 02:15:17;;;;;;;;;;;;;;;;;;2091923;28;1208;-89
2021/08/04 02:16:26;;;;;;;;;;;;;;;;;;2106529;28;1884;-88
2021/08/04 02:17:32;;;;;;;;;;;;;;;;;;2098982;28;2041;-90
2021/08/04 02:18:35;;;;;;;;;;;;;;;;;;2091585;28;1906;-90
2021/08/04 02:19:42;;;;;;;;;;;;;;;;;;2091229;28;1243;-89
2021/08/04 02:20:45;;;;;;;;;;;;;;;;;;2100310;28;1245;-90
2021/08/04 02:21:49;;;;;;;;;;;;;;;;;;2099262;28;1363;-89
2021/08/04 02:22:52;;;;;;;;;;;;;;;;;;2091360;28;2100;-90
2021/08/04 02:24:06;;;;;;;;;;;;;;;;;;2091446;28;1321;-92
2021/08/04 02:25:13;;;;;;;;;;;;;;;;;;2092842;28;1293;-90
2021/08/04 02:26:15;;;;;;;;;;;;;;;;;;2091355;28;2179;-91
2021/08/04 02:27:20;;;;;;;;;;;;;;;;;;2092725;28;1856;-90
2021/08/04 02:28:23;;;;;;;;;;;;;;;;;;2107597;28;1294;-90
2021/08/04 02:29:25;;;;;;;;;;;;;;;;;;2099313;28;1234;-91
2021/08/04 02:30:27;;;;;;;;;;;;;;;;;;2099421;28;2145;-91
2021/08/04 02:31:32;;;;;;;;;;;;;;;;;;2099083;28;1224;-90
2021/08/04 02:32:33;;;;;;;;;;;;;;;;;;2091080;28;1245;-90
2021/08/04 02:33:35;;;;;;;;;;;;;;;;;;2099418;28;1259;-89
2021/08/04 02:34:37;;;;;;;;;;;;;;;;;;2107480;28;1533;-89
2021/08/04 02:35:39;;;;;;;;;;;;;;;;;;2099174;28;2051;-89
2021/08/04 02:36:39;;;;;;;;;;;;;;;;;;2108547;28;1296;-90
2021/08/04 02:37:42;;;;;;;;;;;;;;;;;;2100726;28;1503;-91
2021/08/04 02:38:43;;;;;;;;;;;;;;;;;;2100892;28;1969;-90
2021/08/04 02:39:45;;;;;;;;;;;;;;;;;;2101089;28;1438;-90
2021/08/04 02:40:46;;;;;;;;;;;;;;;;;;2103264;28;2012;-89
2021/08/04 02:41:49;;;;;;;;;;;;;;;;;;2100587;28;1227;-90
2021/08/04 02:42:50;;;;;;;;;;;;;;;;;;2097779;28;1996;-89
2021/08/04 02:43:56;;;;;;;;;;;;;;;;;;2100758;28;1155;-90
2021/08/04 02:44:57;;;;;;;;;;;;;;;;;;2093229;28;1281;-89
2021/08/04 02:45:59;;;;;;;;;;;;;;;;;;2104887;28;2040;-89
2021/08/04 02:47:00;;;;;;;;;;;;;;;;;;2100843;28;1239;-90
2021/08/04 02:48:02;;;;;;;;;;;;;;;;;;2099481;28;2110;-89
2021/08/04 02:49:05;;;;;;;;;;;;;;;;;;2108715;28;1322;-91
2021/08/04 02:50:39;;;;;;;;;;;;;;;;;;2109329;28;1263;-91
2021/08/04 02:51:51;;;;;;;;;;;;;;;;;;2101109;28;1301;-91
2021/08/04 02:53:01;;;;;;;;;;;;;;;;;;2101372;28;1942;-91
2021/08/04 02:54:02;;;;;;;;;;;;;;;;;;2100902;28;1329;-91
2021/08/04 02:55:04;;;;;;;;;;;;;;;;;;2092026;28;1376;-91
2021/08/04 02:56:05;;;;;;;;;;;;;;;;;;2092404;28;1866;-90
2021/08/04 02:57:09;;;;;;;;;;;;;;;;;;2100696;28;1138;-91
2021/08/04 02:58:12;;;;;;;;;;;;;;;;;;2100793;28;1259;-91
2021/08/04 02:59:22;;;;;;;;;;;;;;;;;;2093395;28;1178;-90
2021/08/04 03:00:27;;;;;;;;;;;;;;;;;;2101884;28;1888;-91
2021/08/04 03:01:40;;;;;;;;;;;;;;;;;;2101122;28;1294;-90
2021/08/04 03:02:46;;;;;;;;;;;;;;;;;;2101597;28;2017;-91
2021/08/04 03:03:49;;;;;;;;;;;;;;;;;;2100891;28;1258;-90
2021/08/04 03:04:51;;;;;;;;;;;;;;;;;;2100788;28;1322;-90
2021/08/04 03:05:53;;;;;;;;;;;;;;;;;;2104089;28;1360;-91
2021/08/04 03:06:54;;;;;;;;;;;;;;;;;;2108747;28;1377;-91
2021/08/04 03:07:56;;;;;;;;;;;;;;;;;;2108441;28;2025;-90
2021/08/04 03:08:56;;;;;;;;;;;;;;;;;;2100659;28;1268;-90
2021/08/04 03:09:59;;;;;;;;;;;;;;;;;;2100404;28;1362;-90
2021/08/04 03:10:59;;;;;;;;;;;;;;;;;;2100197;28;2084;-90
2021/08/04 03:12:01;;;;;;;;;;;;;;;;;;2092444;28;1271;-90
2021/08/04 03:13:02;;;;;;;;;;;;;;;;;;2092518;28;2090;-90
2021/08/04 03:14:04;;;;;;;;;;;;;;;;;;2092089;28;1275;-91
2021/08/04 03:15:07;;;;;;;;;;;;;;;;;;2100439;28;1225;-91
2021/08/04 03:16:09;;;;;;;;;;;;;;;;;;2108431;28;1999;-90
2021/08/04 03:17:10;;;;;;;;;;;;;;;;;;2092164;28;1995;-91
2021/08/04 03:18:12;;;;;;;;;;;;;;;;;;2108650;28;1282;-90
2021/08/04 03:19:13;;;;;;;;;;;;;;;;;;2092286;28;1898;-90
2021/08/04 03:20:15;;;;;;;;;;;;;;;;;;2100508;28;1316;-90
2021/08/04 03:21:16;;;;;;;;;;;;;;;;;;2108499;28;2058;-90
2021/08/04 03:22:18;;;;;;;;;;;;;;;;;;2100373;28;1923;-90
2021/08/04 03:23:19;;;;;;;;;;;;;;;;;;2092212;28;1318;-90
2021/08/04 03:24:21;;;;;;;;;;;;;;;;;;2100462;28;1321;-90
2021/08/04 03:25:22;;;;;;;;;;;;;;;;;;2100676;28;1279;-91
2021/08/04 03:26:24;;;;;;;;;;;;;;;;;;2092384;28;2169;-90
2021/08/04 03:27:25;;;;;;;;;;;;;;;;;;2100403;28;1262;-91
2021/08/04 03:28:26;;;;;;;;;;;;;;;;;;2092415;28;1199;-90
2021/08/04 03:29:30;;;;;;;;;;;;;;;;;;2092473;28;1299;-91
2021/08/04 03:30:33;;;;;;;;;;;;;;;;;;2092481;28;2020;-90
2021/08/04 03:31:34;;;;;;;;;;;;;;;;;;2100865;28;1306;-91
2021/08/04 03:32:37;;;;;;;;;;;;;;;;;;2097212;28;2038;-91
2021/08/04 03:33:38;;;;;;;;;;;;;;;;;;2092385;28;1499;-90
2021/08/04 03:34:39;;;;;;;;;;;;;;;;;;2091721;28;1401;-89
2021/08/04 03:35:40;;;;;;;;;;;;;;;;;;2092592;28;1938;-90
2021/08/04 03:36:42;;;;;;;;;;;;;;;;;;2092091;28;1310;-90
2021/08/04 03:37:43;;;;;;;;;;;;;;;;;;2091919;28;1252;-90
2021/08/04 03:38:45;;;;;;;;;;;;;;;;;;2091793;28;1910;-90
2021/08/04 03:39:46;;;;;;;;;;;;;;;;;;2100543;28;1384;-90
2021/08/04 03:40:48;;;;;;;;;;;;;;;;;;2097349;28;1322;-87
2021/08/04 03:41:48;;;;;;;;;;;;;;;;;;2091626;28;1247;-88
2021/08/04 03:42:50;;;;;;;;;;;;;;;;;;2105000;28;2045;-88
2021/08/04 03:43:51;;;;;;;;;;;;;;;;;;2100498;28;1218;-87
2021/08/04 03:44:53;;;;;;;;;;;;;;;;;;2099856;28;1226;-87
2021/08/04 03:45:55;;;;;;;;;;;;;;;;;;2100080;28;2091;-88
2021/08/04 03:46:57;;;;;;;;;;;;;;;;;;2100259;28;1235;-88
2021/08/04 03:47:58;;;;;;;;;;;;;;;;;;2091426;28;2058;-88
2021/08/04 03:48:59;;;;;;;;;;;;;;;;;;2091455;28;1368;-88
2021/08/04 03:50:00;;;;;;;;;;;;;;;;;;2092143;28;1323;-88
2021/08/04 03:51:02;;;;;;;;;;;;;;;;;;2092145;28;2246;-87
2021/08/04 03:52:04;;;;;;;;;;;;;;;;;;2100023;28;1305;-87
2021/08/04 03:53:05;;;;;;;;;;;;;;;;;;2098327;28;2058;-88
2021/08/04 03:54:06;;;;;;;;;;;;;;;;;;2100128;28;1215;-90
2021/08/04 03:55:08;;;;;;;;;;;;;;;;;;2092021;28;1242;-87
2021/08/04 03:56:09;;;;;;;;;;;;;;;;;;2092006;28;2102;-87
2021/08/04 03:57:11;;;;;;;;;;;;;;;;;;2091866;28;1345;-87
2021/08/04 03:58:12;;;;;;;;;;;;;;;;;;2092104;28;1522;-87
2021/08/04 03:59:14;;;;;;;;;;;;;;;;;;2091387;28;1981;-86
2021/08/04 04:00:15;;;;;;;;;;;;;;;;;;2091854;28;1305;-87
2021/08/04 04:01:18;;;;;;;;;;;;;;;;;;2098752;28;1219;-87
2021/08/04 04:02:19;;;;;;;;;;;;;;;;;;2100042;28;1362;-86
2021/08/04 04:03:21;;;;;;;;;;;;;;;;;;2091665;28;1360;-87
2021/08/04 04:04:22;;;;;;;;;;;;;;;;;;2100387;28;1223;-87
2021/08/04 04:05:24;;;;;;;;;;;;;;;;;;2100141;28;1300;-86
2021/08/04 04:06:24;;;;;;;;;;;;;;;;;;2100263;28;1302;-87
2021/08/04 04:07:26;;;;;;;;;;;;;;;;;;2091863;28;1180;-87
2021/08/04 04:08:27;;;;;;;;;;;;;;;;;;2091431;28;1338;-87
2021/08/04 04:09:30;;;;;;;;;;;;;;;;;;2091662;28;1232;-87
2021/08/04 04:10:30;;;;;;;;;;;;;;;;;;2092311;28;1432;-87
2021/08/04 04:11:32;;;;;;;;;;;;;;;;;;2091742;28;1254;-87
2021/08/04 04:12:33;;;;;;;;;;;;;;;;;;2092217;28;1266;-87
2021/08/04 04:13:35;;;;;;;;;;;;;;;;;;2091455;28;1227;-87
2021/08/04 04:14:36;;;;;;;;;;;;;;;;;;2091807;28;1368;-86
2021/08/04 04:15:37;;;;;;;;;;;;;;;;;;2101419;28;2085;-87
2021/08/04 04:16:40;;;;;;;;;;;;;;;;;;2108156;28;857;-87
2021/08/04 04:17:41;;;;;;;;;;;;;;;;;;2099809;28;1273;-87
2021/08/04 04:18:42;;;;;;;;;;;;;;;;;;2099834;28;1306;-87
2021/08/04 04:19:44;;;;;;;;;;;;;;;;;;2099916;28;1964;-86
2021/08/04 04:20:45;;;;;;;;;;;;;;;;;;2099956;28;1425;-87
2021/08/04 04:21:47;;;;;;;;;;;;;;;;;;2100107;28;1244;-86
2021/08/04 04:22:48;;;;;;;;;;;;;;;;;;2099957;28;1203;-87
2021/08/04 04:23:49;;;;;;;;;;;;;;;;;;2108013;28;1365;-86
2021/08/04 04:24:50;;;;;;;;;;;;;;;;;;2091560;28;1366;-87
2021/08/04 04:25:52;;;;;;;;;;;;;;;;;;2099683;28;1268;-87
2021/08/04 04:26:53;;;;;;;;;;;;;;;;;;2099418;28;1250;-87
2021/08/04 04:27:54;;;;;;;;;;;;;;;;;;2099424;28;2014;-87
2021/08/04 04:28:55;;;;;;;;;;;;;;;;;;2108313;28;1310;-87
2021/08/04 04:29:57;;;;;;;;;;;;;;;;;;2108328;28;1270;-87
2021/08/04 04:30:58;;;;;;;;;;;;;;;;;;2095693;28;2009;-87
2021/08/04 04:32:02;;;;;;;;;;;;;;;;;;2091556;28;1288;-86
2021/08/04 04:33:02;;;;;;;;;;;;;;;;;;2091630;28;1310;-85
2021/08/04 04:34:04;;;;;;;;;;;;;;;;;;2091361;28;1468;-87
2021/08/04 04:35:05;;;;;;;;;;;;;;;;;;2091581;28;1302;-87
2021/08/04 04:36:07;;;;;;;;;;;;;;;;;;2091587;28;1353;-89
2021/08/04 04:37:08;;;;;;;;;;;;;;;;;;2091624;28;2007;-87
2021/08/04 04:38:10;;;;;;;;;;;;;;;;;;2107588;28;1316;-88
2021/08/04 04:39:10;;;;;;;;;;;;;;;;;;2099635;28;1969;-86
2021/08/04 04:40:12;;;;;;;;;;;;;;;;;;2091542;28;1251;-87
2021/08/04 04:41:13;;;;;;;;;;;;;;;;;;2091671;28;1355;-87
2021/08/04 04:42:16;;;;;;;;;;;;;;;;;;2091934;28;2080;-88
2021/08/04 04:43:16;;;;;;;;;;;;;;;;;;2091937;28;1200;-87
2021/08/04 04:44:18;;;;;;;;;;;;;;;;;;2099822;28;1194;-87
2021/08/04 04:45:19;;;;;;;;;;;;;;;;;;2108246;28;1345;-88
2021/08/04 04:46:21;;;;;;;;;;;;;;;;;;2099757;28;1218;-88
2021/08/04 04:47:23;;;;;;;;;;;;;;;;;;2098147;28;2034;-87
2021/08/04 04:48:24;;;;;;;;;;;;;;;;;;2091233;28;1293;-88
2021/08/04 04:49:25;;;;;;;;;;;;;;;;;;2091771;28;1379;-87
2021/08/04 04:50:27;;;;;;;;;;;;;;;;;;2091755;28;1243;-87
2021/08/04 04:51:28;;;;;;;;;;;;;;;;;;2100124;28;1313;-89
2021/08/04 04:52:30;;;;;;;;;;;;;;;;;;2099081;28;2010;-88
2021/08/04 04:53:30;;;;;;;;;;;;;;;;;;2099458;28;1197;-87
2021/08/04 04:54:32;;;;;;;;;;;;;;;;;;2091487;28;1330;-87
2021/08/04 04:55:33;;;;;;;;;;;;;;;;;;2099332;28;1308;-87
2021/08/04 04:56:35;;;;;;;;;;;;;;;;;;2091497;28;1343;-87
2021/08/04 04:57:36;;;;;;;;;;;;;;;;;;2094721;28;2023;-87
2021/08/04 04:58:37;;;;;;;;;;;;;;;;;;2091397;28;1434;-87
2021/08/04 04:59:38;;;;;;;;;;;;;;;;;;2091261;28;1898;-88
2021/08/04 05:00:40;;;;;;;;;;;;;;;;;;2092678;28;1231;-87
2021/08/04 05:01:41;;;;;;;;;;;;;;;;;;2108078;28;974;-87
2021/08/04 05:02:44;;;;;;;;;;;;;;;;;;2099667;28;2177;-88
2021/08/04 05:03:45;;;;;;;;;;;;;;;;;;2091622;28;1262;-87
2021/08/04 05:04:47;;;;;;;;;;;;;;;;;;2099142;28;1184;-87
2021/08/04 05:05:48;;;;;;;;;;;;;;;;;;2098861;28;2028;-87
2021/08/04 05:06:49;;;;;;;;;;;;;;;;;;2099720;28;1305;-87
2021/08/04 05:07:50;;;;;;;;;;;;;;;;;;2107498;28;2068;-87
2021/08/04 05:08:54;;;;;;;;;;;;;;;;;;2098811;28;1350;-88
2021/08/04 05:09:54;;;;;;;;;;;;;;;;;;2099417;28;1107;-87
2021/08/04 05:10:56;;;;;;;;;;;;;;;;;;2099845;28;2032;-87
2021/08/04 05:11:57;;;;;;;;;;;;;;;;;;2091553;28;1346;-87
2021/08/04 05:12:58;;;;;;;;;;;;;;;;;;2091044;28;2051;-87
2021/08/04 05:13:59;;;;;;;;;;;;;;;;;;2099692;28;1329;-86
2021/08/04 05:15:01;;;;;;;;;;;;;;;;;;2099615;28;1353;-87
2021/08/04 05:16:02;;;;;;;;;;;;;;;;;;2091378;28;1883;-89
2021/08/04 05:17:04;;;;;;;;;;;;;;;;;;2099633;28;1238;-88
2021/08/04 05:18:07;;;;;;;;;;;;;;;;;;2099737;28;2053;-88
2021/08/04 05:19:09;;;;;;;;;;;;;;;;;;2091646;28;1975;-88
2021/08/04 05:20:10;;;;;;;;;;;;;;;;;;2091342;28;1415;-88
2021/08/04 05:21:12;;;;;;;;;;;;;;;;;;2099358;28;2036;-88
2021/08/04 05:22:13;;;;;;;;;;;;;;;;;;2107422;28;2069;-88
2021/08/04 05:23:14;;;;;;;;;;;;;;;;;;2107529;28;1246;-88
2021/08/04 05:24:15;;;;;;;;;;;;;;;;;;2091078;28;1337;-89
2021/08/04 05:25:17;;;;;;;;;;;;;;;;;;2099991;28;1373;-88
2021/08/04 05:26:18;;;;;;;;;;;;;;;;;;2099096;28;2107;-88
2021/08/04 05:27:20;;;;;;;;;;;;;;;;;;2099047;28;2101;-88
2021/08/04 05:28:20;;;;;;;;;;;;;;;;;;2099346;28;1258;-88
2021/08/04 05:29:22;;;;;;;;;;;;;;;;;;2099841;28;1420;-89
2021/08/04 05:30:23;;;;;;;;;;;;;;;;;;2090635;28;1224;-88
2021/08/04 05:31:25;;;;;;;;;;;;;;;;;;2099024;28;1933;-88
2021/08/04 05:32:26;;;;;;;;;;;;;;;;;;2107704;28;1384;-88
2021/08/04 05:33:29;;;;;;;;;;;;;;;;;;2107990;28;1297;-88
2021/08/04 05:34:30;;;;;;;;;;;;;;;;;;2099618;28;1422;-88
2021/08/04 05:35:32;;;;;;;;;;;;;;;;;;2091158;28;1179;-88
2021/08/04 05:36:33;;;;;;;;;;;;;;;;;;2099582;28;842;-87
2021/08/04 05:37:35;;;;;;;;;;;;;;;;;;2107410;28;1842;-87
2021/08/04 05:38:35;;;;;;;;;;;;;;;;;;2099216;28;1135;-88
2021/08/04 05:39:37;;;;;;;;;;;;;;;;;;2099385;28;1981;-87
2021/08/04 05:40:38;;;;;;;;;;;;;;;;;;2099138;28;1440;-87
2021/08/04 05:41:42;;;;;;;;;;;;;;;;;;2091369;28;1235;-87
2021/08/04 05:42:43;;;;;;;;;;;;;;;;;;2091718;28;2074;-87
2021/08/04 05:43:44;;;;;;;;;;;;;;;;;;2099468;28;1282;-87
2021/08/04 05:44:45;;;;;;;;;;;;;;;;;;2091090;28;1191;-87
2021/08/04 05:45:47;;;;;;;;;;;;;;;;;;2102133;28;2118;-87
2021/08/04 05:46:48;;;;;;;;;;;;;;;;;;2099580;28;1227;-86
2021/08/04 05:47:49;;;;;;;;;;;;;;;;;;2099082;28;1982;-87
2021/08/04 05:48:52;;;;;;;;;;;;;;;;;;2091210;28;1361;-87
2021/08/04 05:49:53;;;;;;;;;;;;;;;;;;2091277;28;1218;-87
2021/08/04 05:50:54;;;;;;;;;;;;;;;;;;2091188;28;2277;-87
2021/08/04 05:51:56;;;;;;;;;;;;;;;;;;2099234;28;1359;-87
2021/08/04 05:52:57;;;;;;;;;;;;;;;;;;2099692;28;2069;-88
2021/08/04 05:53:58;;;;;;;;;;;;;;;;;;2091163;28;1347;-87
2021/08/04 05:54:59;;;;;;;;;;;;;;;;;;2090789;28;1313;-88
2021/08/04 05:56:01;;;;;;;;;;;;;;;;;;2094997;28;1949;-87
2021/08/04 05:57:02;;;;;;;;;;;;;;;;;;2099410;28;1336;-88
2021/08/04 05:58:04;;;;;;;;;;;;;;;;;;2100147;28;1930;-87
2021/08/04 05:59:05;;;;;;;;;;;;;;;;;;2098993;28;1367;-88
2021/08/04 06:00:07;;;;;;;;;;;;;;;;;;2099460;28;1917;-87
2021/08/04 06:01:08;;;;;;;;;;;;;;;;;;2105144;28;2051;-87
2021/08/04 06:02:10;;;;;;;;;;;;;;;;;;2107065;28;2021;-88
2021/08/04 06:03:10;;;;;;;;;;;;;;;;;;2091723;28;1247;-88
2021/08/04 06:04:14;;;;;;;;;;;;;;;;;;2091109;28;1370;-88
2021/08/04 06:05:14;;;;;;;;;;;;;;;;;;2099712;28;1243;-88
2021/08/04 06:06:16;;;;;;;;;;;;;;;;;;2105990;28;1215;-87
2021/08/04 06:07:17;;;;;;;;;;;;;;;;;;2107445;28;2005;-89
2021/08/04 06:08:19;;;;;;;;;;;;;;;;;;2099339;28;1385;-89
2021/08/04 06:09:19;;;;;;;;;;;;;;;;;;2099176;28;1314;-88
2021/08/04 06:10:21;;;;;;;;;;;;;;;;;;2099219;28;1234;-87
2021/08/04 06:11:23;;;;;;;;;;;;;;;;;;2099008;28;2063;-87
2021/08/04 06:12:25;;;;;;;;;;;;;;;;;;2108267;28;1657;-87
2021/08/04 06:13:26;;;;;;;;;;;;;;;;;;2100685;28;1359;-86
2021/08/04 06:14:28;;;;;;;;;;;;;;;;;;2100856;28;1226;-87
2021/08/04 06:15:29;;;;;;;;;;;;;;;;;;2100741;28;1268;-87
2021/08/04 06:16:30;;;;;;;;;;;;;;;;;;2093501;28;1438;-86
2021/08/04 06:17:31;;;;;;;;;;;;;;;;;;2099797;28;2122;-87
2021/08/04 06:18:33;;;;;;;;;;;;;;;;;;2100243;28;1350;-87
2021/08/04 06:19:35;;;;;;;;;;;;;;;;;;2108875;28;1918;-87
2021/08/04 06:20:37;;;;;;;;;;;;;;;;;;2107558;28;1192;-87
2021/08/04 06:21:38;;;;;;;;;;;;;;;;;;2108493;28;1426;-87
2021/08/04 06:22:39;;;;;;;;;;;;;;;;;;2100128;28;1714;-87
2021/08/04 06:23:40;;;;;;;;;;;;;;;;;;2101066;28;1215;-88
2021/08/04 06:24:43;;;;;;;;;;;;;;;;;;2092405;28;1303;-87
2021/08/04 06:25:43;;;;;;;;;;;;;;;;;;2100283;28;1399;-87
2021/08/04 06:26:45;;;;;;;;;;;;;;;;;;2091930;28;1448;-88
2021/08/04 06:27:46;;;;;;;;;;;;;;;;;;2097028;28;1995;-89
2021/08/04 06:28:49;;;;;;;;;;;;;;;;;;2100285;28;1407;-88
2021/08/04 06:29:50;;;;;;;;;;;;;;;;;;2101033;28;1311;-88
2021/08/04 06:30:52;;;;;;;;;;;;;;;;;;2097363;28;1324;-88
2021/08/04 06:31:53;;;;;;;;;;;;;;;;;;2092451;28;1400;-89
2021/08/04 06:32:55;;;;;;;;;;;;;;;;;;2099341;28;1812;-88
2021/08/04 06:33:56;;;;;;;;;;;;;;;;;;2100837;28;1360;-88
2021/08/04 06:35:00;;;;;;;;;;;;;;;;;;2108830;28;1351;-88
2021/08/04 06:36:03;;;;;;;;;;;;;;;;;;2106394;28;1354;-88
2021/08/04 06:37:06;;;;;;;;;;;;;;;;;;2108906;28;1345;-89
2021/08/04 06:38:06;;;;;;;;;;;;;;;;;;2094489;28;1796;-92
2021/08/04 06:39:09;;;;;;;;;;;;;;;;;;2108315;28;1549;-89
2021/08/04 06:40:10;;;;;;;;;;;;;;;;;;2100301;28;1975;-89
2021/08/04 06:41:15;;;;;;;;;;;;;;;;;;2115426;28;981;-89
2021/08/04 06:42:16;;;;;;;;;;;;;;;;;;2108021;28;1341;-89
2021/08/04 06:43:19;;;;;;;;;;;;;;;;;;2097307;28;1292;-89
2021/08/04 06:44:20;;;;;;;;;;;;;;;;;;2108444;28;1364;-89
2021/08/04 06:45:22;;;;;;;;;;;;;;;;;;2108550;28;1441;-89
2021/08/04 06:46:23;;;;;;;;;;;;;;;;;;2100547;28;1406;-89
2021/08/04 06:47:25;;;;;;;;;;;;;;;;;;2092746;28;1801;-88
2021/08/04 06:48:26;;;;;;;;;;;;;;;;;;2101138;28;1367;-88
2021/08/04 06:49:28;;;;;;;;;;;;;;;;;;2109053;28;1342;-87
2021/08/04 06:50:32;;;;;;;;;;;;;;;;;;2099579;28;1375;-88
2021/08/04 06:51:35;;;;;;;;;;;;;;;;;;2092429;28;1239;-88
2021/08/04 06:52:36;;;;;;;;;;;;;;;;;;2103988;28;2113;-88
2021/08/04 06:53:38;;;;;;;;;;;;;;;;;;2108962;28;1329;-86
2021/08/04 06:54:38;;;;;;;;;;;;;;;;;;2099698;28;1346;-88
2021/08/04 06:55:41;;;;;;;;;;;;;;;;;;2100289;28;2075;-88
2021/08/04 06:56:42;;;;;;;;;;;;;;;;;;2091876;28;1405;-88
2021/08/04 06:57:44;;;;;;;;;;;;;;;;;;2092348;28;1238;-87
2021/08/04 06:58:44;;;;;;;;;;;;;;;;;;2099870;28;1359;-88
2021/08/04 06:59:47;;;;;;;;;;;;;;;;;;2095327;28;1922;-88
2021/08/04 07:00:47;;;;;;;;;;;;;;;;;;2099589;28;1758;-88
2021/08/04 07:01:52;;;;;;;;;;;;;;;;;;2109083;28;1544;-86
2021/08/04 07:02:53;;;;;;;;;;;;;;;;;;2092849;28;1228;-90
2021/08/04 07:03:56;;;;;;;;;;;;;;;;;;2100587;28;1208;-90
2021/08/04 07:04:57;;;;;;;;;;;;;;;;;;2100606;28;1341;-90
2021/08/04 07:06:03;;;;;;;;;;;;;;;;;;2100591;28;1111;-91
2021/08/04 07:07:04;;;;;;;;;;;;;;;;;;2101438;28;1554;-91
2021/08/04 07:08:24;;;;;;;;;;;;;;;;;;2100447;28;1333;-92
2021/08/04 07:09:28;;;;;;;;;;;;;;;;;;2102122;28;1145;-90
2021/08/04 07:10:29;;;;;;;;;;;;;;;;;;2108696;28;1282;-90
2021/08/04 07:11:31;;;;;;;;;;;;;;;;;;2117683;28;1094;-89
2021/08/04 07:12:33;;;;;;;;;;;;;;;;;;2108061;28;1554;-90
2021/08/04 07:13:36;;;;;;;;;;;;;;;;;;2100905;28;1317;-90
2021/08/04 07:14:39;;;;;;;;;;;;;;;;;;2100072;28;1473;-89
2021/08/04 07:15:42;;;;;;;;;;;;;;;;;;2108726;28;1402;-91
2021/08/04 07:16:45;;;;;;;;;;;;;;;;;;2100802;28;1303;-89